Time;durP1;ratioP1;P1;durP2;ratioP2;P2;SDS_P1;SDS_P2;PMS_P1;PMS_P2;Temp;Humidity;BMP_temperature;BMP_pressure;BME280_temperature;BME280_humidity;BME280_pressure;Samples;Min_cycle;Max_cycle;Signal;HPM_P1;HPM_P2
2023/12/26 00:02:48;;;;;;;6.17;4.77;;;;;;;14.06;47.55;98498.44;6972152;28;20223;-77
2023/12/26 00:06:11;;;;;;;3.67;2.37;;;;;;;13.44;49.38;98499.00;6971788;28;20216;-78
2023/12/26 00:09:33;;;;;;;2.23;2.03;;;;;;;13.54;49.18;98480.31;6971499;28;20656;-78
2023/12/26 00:12:55;;;;;;;5.33;2.50;;;;;;;13.47;49.71;98481.47;6971085;28;20645;-78
2023/12/26 00:16:16;;;;;;;2.33;2.10;;;;;;;13.33;49.73;98475.41;6942469;28;20230;-78
2023/12/26 00:19:38;;;;;;;3.20;2.20;;;;;;;13.41;49.71;98466.13;6943698;28;20229;-77
2023/12/26 00:23:01;;;;;;;4.57;2.30;;;;;;;13.47;49.87;98474.19;6943447;28;20231;-78
2023/12/26 00:26:22;;;;;;;5.40;2.70;;;;;;;13.45;49.86;98461.91;6943926;28;20206;-77
2023/12/26 00:29:44;;;;;;;2.33;2.03;;;;;;;12.97;51.19;98466.53;6946543;28;20209;-78
2023/12/26 00:33:06;;;;;;;2.30;2.10;;;;;;;13.12;51.03;98480.50;6970080;28;20286;-79
2023/12/26 00:36:27;;;;;;;2.87;2.50;;;;;;;13.82;49.20;98480.50;6969891;28;20284;-77
2023/12/26 00:39:50;;;;;;;5.40;1.93;;;;;;;13.75;49.32;98478.94;6969030;28;20240;-77
2023/12/26 00:43:12;;;;;;;3.23;1.93;;;;;;;13.62;49.53;98479.16;6970874;28;20694;-79
2023/12/26 00:46:33;;;;;;;4.17;2.10;;;;;;;13.74;49.49;98474.59;6971206;28;20203;-77
2023/12/26 00:49:57;;;;;;;2.10;1.80;;;;;;;13.51;50.07;98482.66;6969675;28;20221;-78
2023/12/26 00:53:18;;;;;;;1.97;1.80;;;;;;;13.50;49.97;98473.69;6969021;28;20234;-77
2023/12/26 00:56:41;;;;;;;2.27;2.03;;;;;;;13.44;50.21;98465.66;6969384;28;20230;-76
2023/12/26 01:00:05;;;;;;;3.93;2.17;;;;;;;13.38;50.31;98480.13;6970073;28;20198;-75
2023/12/26 01:03:27;;;;;;;3.10;1.90;;;;;;;13.23;50.82;98471.59;6970583;28;20232;-75
2023/12/26 01:06:48;;;;;;;4.60;2.00;;;;;;;12.85;51.88;98481.84;6969257;28;20206;-80
2023/12/26 01:10:10;;;;;;;1.70;1.60;;;;;;;13.02;51.65;98482.91;6969702;28;20257;-75
2023/12/26 01:13:34;;;;;;;3.37;1.80;;;;;;;12.87;51.74;98472.47;6968554;28;20226;-76
2023/12/26 01:16:56;;;;;;;2.87;2.00;;;;;;;12.69;52.60;98496.81;6970185;28;20566;-75
2023/12/26 01:20:17;;;;;;;2.47;2.27;;;;;;;12.66;52.46;98475.66;6969817;28;20249;-76
2023/12/26 01:23:39;;;;;;;2.67;1.87;;;;;;;12.89;51.87;98500.13;6969622;28;20260;-76
2023/12/26 01:27:00;;;;;;;2.80;2.00;;;;;;;13.00;51.50;98507.53;6968901;28;20233;-75
2023/12/26 01:30:23;;;;;;;2.50;1.90;;;;;;;12.79;51.91;98499.00;6967775;28;20237;-75
2023/12/26 01:33:45;;;;;;;4.33;2.10;;;;;;;13.19;50.83;98505.59;6969256;28;20281;-76
2023/12/26 01:37:06;;;;;;;2.30;2.10;;;;;;;13.16;50.61;98512.28;6969145;28;20246;-75
2023/12/26 01:40:28;;;;;;;2.33;2.00;;;;;;;12.84;51.08;98507.28;6968708;28;20211;-75
2023/12/26 01:43:49;;;;;;;3.57;2.07;;;;;;;12.81;51.23;98522.06;6961443;28;20912;-76
2023/12/26 01:47:13;;;;;;;4.27;2.57;;;;;;;12.86;50.91;98526.84;6968690;28;20206;-77
2023/12/26 01:50:36;;;;;;;2.33;2.13;;;;;;;12.93;50.53;98519.44;6967345;28;20742;-75
2023/12/26 01:53:59;;;;;;;2.40;2.20;;;;;;;12.86;50.58;98524.13;6968134;28;20723;-77
2023/12/26 01:57:20;;;;;;;2.57;2.20;;;;;;;12.94;50.45;98527.34;6968632;28;20244;-76
2023/12/26 02:00:42;;;;;;;4.33;2.50;;;;;;;12.83;50.59;98529.97;6968466;28;20669;-75
2023/12/26 02:04:05;;;;;;;4.17;2.73;;;;;;;12.65;51.33;98525.41;6962596;28;20250;-75
2023/12/26 02:07:27;;;;;;;3.33;2.27;;;;;;;12.53;52.08;98531.75;6967497;28;20219;-75
2023/12/26 02:10:48;;;;;;;5.23;2.10;;;;;;;12.72;51.47;98533.41;6953546;28;20241;-75
2023/12/26 02:14:10;;;;;;;5.37;2.23;;;;;;;12.51;52.22;98531.16;6968707;28;20260;-76
2023/12/26 02:17:32;;;;;;;2.53;2.27;;;;;;;12.33;52.08;98482.50;6969118;28;20584;-76
2023/12/26 02:20:55;;;;;;;2.77;2.10;;;;;;;12.51;52.30;98525.75;6956491;28;20202;-76
2023/12/26 02:24:18;;;;;;;3.13;2.00;;;;;;;12.70;51.61;98533.63;6940115;28;20226;-75
2023/12/26 02:27:40;;;;;;;4.50;2.40;;;;;;;12.65;51.82;98538.94;6941251;28;20209;-75
2023/12/26 02:31:02;;;;;;;2.20;2.00;;;;;;;12.59;52.19;98538.97;6944512;28;20209;-75
2023/12/26 02:34:24;;;;;;;2.80;2.30;;;;;;;12.72;51.93;98549.66;6968553;28;20226;-75
2023/12/26 02:37:46;;;;;;;2.80;2.53;;;;;;;12.84;51.58;98546.00;6966863;28;20230;-76
2023/12/26 02:41:09;;;;;;;2.47;2.30;;;;;;;12.70;51.80;98549.88;6966465;28;20689;-75
2023/12/26 02:44:30;;;;;;;3.97;2.23;;;;;;;13.04;51.08;98556.63;6967910;28;20237;-77
2023/12/26 02:47:52;;;;;;;3.13;2.30;;;;;;;12.67;51.98;98563.03;6967850;28;20234;-75
2023/12/26 02:51:13;;;;;;;5.10;2.57;;;;;;;13.20;50.48;98554.09;6967871;28;20206;-75
2023/12/26 02:54:36;;;;;;;2.50;2.30;;;;;;;12.96;50.70;98556.91;6966563;28;20770;-76
2023/12/26 02:57:59;;;;;;;3.27;2.33;;;;;;;13.09;50.46;98567.59;6968345;28;20239;-76
2023/12/26 03:01:20;;;;;;;2.73;2.30;;;;;;;13.07;50.42;98559.69;6967259;28;20261;-75
2023/12/26 03:04:42;;;;;;;2.40;2.10;;;;;;;13.23;50.20;98574.50;6972658;28;20217;-76
2023/12/26 03:08:04;;;;;;;2.53;2.30;;;;;;;12.91;50.78;98564.84;6973379;28;20234;-76
2023/12/26 03:11:26;;;;;;;2.00;1.90;;;;;;;13.14;50.11;98557.72;6972912;28;20264;-76
2023/12/26 03:14:49;;;;;;;2.33;2.00;;;;;;;13.18;50.05;98564.34;6972288;28;20214;-76
2023/12/26 03:18:10;;;;;;;3.33;2.40;;;;;;;13.31;49.37;98556.06;6972368;28;20265;-76
2023/12/26 03:21:32;;;;;;;2.83;2.10;;;;;;;13.27;49.69;98556.75;6946312;28;20223;-75
2023/12/26 03:24:53;;;;;;;3.47;2.10;;;;;;;13.56;48.66;98564.88;6972134;28;20206;-76
2023/12/26 03:28:16;;;;;;;2.63;2.10;;;;;;;13.34;49.11;98574.53;6972343;28;20869;-76
2023/12/26 03:31:44;;;;;;;3.77;2.30;;;;;;;13.46;49.01;98569.19;6971956;28;20222;-78
2023/12/26 03:35:06;;;;;;;4.83;2.47;;;;;;;13.33;49.41;98559.34;6973420;28;20232;-76
2023/12/26 03:38:27;;;;;;;2.93;2.30;;;;;;;13.07;49.60;98559.69;6973339;28;20210;-77
2023/12/26 03:41:49;;;;;;;2.47;2.20;;;;;;;13.07;49.68;98564.25;6972257;28;20233;-75
2023/12/26 03:45:11;;;;;;;6.13;2.60;;;;;;;13.03;49.83;98587.41;6971905;28;20210;-75
2023/12/26 03:48:34;;;;;;;3.73;2.83;;;;;;;13.06;49.40;98565.31;6971277;28;20799;-76
2023/12/26 03:51:56;;;;;;;3.20;2.40;;;;;;;12.91;50.24;98581.91;6972025;28;20271;-75
2023/12/26 03:55:17;;;;;;;5.13;2.53;;;;;;;13.07;49.47;98575.94;6971473;28;20248;-76
2023/12/26 03:58:39;;;;;;;2.20;2.00;;;;;;;12.59;50.75;98576.84;6972245;28;20256;-76
2023/12/26 04:02:01;;;;;;;3.17;2.30;;;;;;;12.86;50.04;98580.94;6971010;28;20230;-76
2023/12/26 04:05:24;;;;;;;3.10;2.47;;;;;;;12.93;49.69;98579.78;6971478;28;20206;-76
2023/12/26 04:08:46;;;;;;;2.50;2.30;;;;;;;13.32;49.10;98575.81;6970573;28;20213;-75
2023/12/26 04:12:08;;;;;;;3.27;2.20;;;;;;;13.10;49.21;98569.25;6971380;28;20281;-76
2023/12/26 04:15:30;;;;;;;5.50;2.13;;;;;;;13.33;48.87;98569.38;6970704;28;20226;-76
2023/12/26 04:18:51;;;;;;;2.63;2.10;;;;;;;13.24;48.90;98573.44;6971832;28;20548;-76
2023/12/26 04:22:14;;;;;;;3.93;2.50;;;;;;;13.26;49.28;98574.84;6970415;28;20230;-75
2023/12/26 04:25:36;;;;;;;6.40;2.40;;;;;;;13.34;48.84;98574.53;6969364;28;20253;-75
2023/12/26 04:28:57;;;;;;;3.13;2.30;;;;;;;13.13;49.07;98576.91;6971155;28;20217;-76
2023/12/26 04:32:19;;;;;;;4.67;2.00;;;;;;;13.39;48.93;98574.69;6964214;28;20315;-76
2023/12/26 04:35:41;;;;;;;2.20;2.10;;;;;;;13.16;49.33;98571.84;6971599;28;20226;-76
2023/12/26 04:39:04;;;;;;;2.77;2.57;;;;;;;13.49;48.63;98572.25;6971761;28;20568;-75
2023/12/26 04:42:26;;;;;;;4.37;2.33;;;;;;;13.26;48.74;98580.28;6970771;28;20234;-75
2023/12/26 04:45:47;;;;;;;2.93;2.03;;;;;;;12.95;50.00;98574.16;6961301;28;20620;-77
2023/12/26 04:49:09;;;;;;;5.20;2.50;;;;;;;12.92;49.74;98558.41;6956188;28;20256;-77
2023/12/26 04:52:30;;;;;;;2.40;2.30;;;;;;;13.26;49.49;98590.25;6970269;28;20260;-75
2023/12/26 04:55:53;;;;;;;2.80;2.30;;;;;;;13.36;49.12;98585.97;6970445;28;20233;-75
2023/12/26 04:59:15;;;;;;;3.30;2.30;;;;;;;13.34;49.20;98584.56;6970365;28;20221;-76
2023/12/26 05:02:36;;;;;;;3.37;2.60;;;;;;;13.39;48.92;98577.38;6970684;28;20241;-76
2023/12/26 05:05:58;;;;;;;2.47;2.20;;;;;;;13.16;49.52;98590.78;6970833;28;20719;-76
2023/12/26 05:09:19;;;;;;;2.50;2.27;;;;;;;12.87;50.02;98588.00;6968560;28;20222;-77
2023/12/26 05:12:42;;;;;;;4.47;2.40;;;;;;;12.89;50.50;98597.56;6968062;28;20241;-75
2023/12/26 05:16:04;;;;;;;2.80;2.30;;;;;;;13.05;50.32;98599.66;6970500;28;20248;-75
2023/12/26 05:19:26;;;;;;;2.30;2.00;;;;;;;13.04;50.04;98594.50;6969687;28;20676;-75
2023/12/26 05:22:48;;;;;;;2.60;2.10;;;;;;;12.96;50.11;98590.22;6968831;28;20296;-76
2023/12/26 05:26:09;;;;;;;6.13;2.67;;;;;;;13.25;49.50;98589.44;6968724;28;20297;-75
2023/12/26 05:29:32;;;;;;;4.03;2.23;;;;;;;12.78;50.39;98590.16;6968304;28;20324;-75
2023/12/26 05:32:54;;;;;;;2.63;2.23;;;;;;;12.96;50.36;98598.34;6966652;28;20737;-75
2023/12/26 05:36:15;;;;;;;2.73;1.93;;;;;;;13.29;49.54;98584.41;6964932;28;20221;-76
2023/12/26 05:39:37;;;;;;;2.37;2.17;;;;;;;13.27;49.20;98590.03;6966138;28;20244;-76
2023/12/26 05:42:58;;;;;;;5.80;2.60;;;;;;;13.26;49.15;98592.97;6966328;28;20265;-76
2023/12/26 05:46:23;;;;;;;3.63;2.80;;;;;;;13.23;49.30;98593.44;6968424;28;20887;-75
2023/12/26 05:49:45;;;;;;;4.77;2.43;;;;;;;12.91;49.87;98600.84;6969081;28;20594;-76
2023/12/26 05:53:07;;;;;;;2.47;2.10;;;;;;;13.14;49.75;98611.88;6968694;28;20598;-76
2023/12/26 05:56:28;;;;;;;3.10;2.40;;;;;;;13.41;48.96;98602.38;6968236;28;20222;-75
2023/12/26 05:59:50;;;;;;;2.40;2.20;;;;;;;13.25;49.26;98603.00;6966817;28;20246;-76
2023/12/26 06:03:13;;;;;;;2.70;2.10;;;;;;;13.05;49.73;98617.81;6968944;28;20226;-76
2023/12/26 06:06:35;;;;;;;3.57;2.40;;;;;;;13.16;49.26;98619.78;6956150;28;20199;-76
2023/12/26 06:09:56;;;;;;;2.67;2.20;;;;;;;13.40;49.13;98624.25;6966612;28;20240;-75
2023/12/26 06:13:18;;;;;;;4.20;2.23;;;;;;;13.45;49.04;98624.41;6947348;28;20273;-75
2023/12/26 06:16:39;;;;;;;4.20;2.50;;;;;;;13.45;49.00;98627.94;6967615;28;20238;-76
2023/12/26 06:20:03;;;;;;;4.17;2.27;;;;;;;13.46;49.07;98621.44;6967322;28;20209;-76
2023/12/26 06:23:26;;;;;;;4.33;2.50;;;;;;;13.57;48.47;98620.69;6967818;28;20226;-75
2023/12/26 06:26:48;;;;;;;6.13;2.70;;;;;;;13.15;49.46;98620.81;6953474;28;20659;-75
2023/12/26 06:30:11;;;;;;;4.30;2.30;;;;;;;13.28;49.28;98609.84;6967962;28;20202;-77
2023/12/26 06:33:32;;;;;;;2.87;2.37;;;;;;;13.17;49.56;98630.34;6967670;28;20230;-76
2023/12/26 06:36:55;;;;;;;3.13;2.30;;;;;;;13.32;49.33;98633.50;6965886;28;20267;-76
2023/12/26 06:40:17;;;;;;;3.10;2.47;;;;;;;13.50;48.79;98643.50;6973627;28;20695;-75
2023/12/26 06:43:38;;;;;;;2.90;2.07;;;;;;;13.31;49.20;98647.28;6968449;28;20308;-75
2023/12/26 06:47:00;;;;;;;5.07;2.40;;;;;;;13.26;49.61;98647.97;6950897;28;20194;-77
2023/12/26 06:50:21;;;;;;;4.00;2.53;;;;;;;13.40;49.50;98652.16;6968592;28;20250;-75
2023/12/26 06:53:44;;;;;;;4.57;2.50;;;;;;;13.52;49.16;98644.09;6972889;28;20591;-75
2023/12/26 06:57:08;;;;;;;3.53;2.40;;;;;;;13.34;49.09;98653.06;6967220;28;20253;-76
2023/12/26 07:00:29;;;;;;;3.90;2.70;;;;;;;13.06;50.18;98663.59;6973487;28;20814;-75
2023/12/26 07:03:51;;;;;;;4.07;2.60;;;;;;;13.25;49.72;98662.56;6972190;28;20249;-75
2023/12/26 07:07:13;;;;;;;4.00;2.53;;;;;;;13.36;49.17;98669.09;6973500;28;20209;-75
2023/12/26 07:10:36;;;;;;;5.40;3.07;;;;;;;13.19;49.81;98668.88;6960986;28;20202;-76
2023/12/26 07:13:57;;;;;;;2.60;2.40;;;;;;;13.35;49.14;98673.69;6962198;28;20622;-75
2023/12/26 07:17:19;;;;;;;6.43;2.50;;;;;;;13.45;49.01;98692.94;6970635;28;20234;-74
2023/12/26 07:20:40;;;;;;;3.50;2.33;;;;;;;13.75;48.07;98687.56;6958928;28;20211;-76
2023/12/26 07:24:02;;;;;;;2.73;2.40;;;;;;;13.10;49.52;98688.34;6958176;28;20230;-74
2023/12/26 07:27:25;;;;;;;5.53;2.80;;;;;;;13.40;49.09;98697.38;6945653;28;20230;-75
2023/12/26 07:30:46;;;;;;;3.90;2.33;;;;;;;13.52;48.75;98695.56;6962086;28;20673;-75
2023/12/26 07:34:10;;;;;;;5.00;2.30;;;;;;;13.33;49.11;98696.63;6970701;28;20218;-75
2023/12/26 07:37:32;;;;;;;3.63;2.20;;;;;;;13.17;49.52;98713.47;6972599;28;20599;-75
2023/12/26 07:40:53;;;;;;;2.87;2.67;;;;;;;13.52;48.57;98723.47;6954338;28;20570;-75
2023/12/26 07:44:17;;;;;;;3.60;2.50;;;;;;;13.53;48.60;98721.59;6944869;28;20246;-76
2023/12/26 07:47:38;;;;;;;4.53;2.20;;;;;;;13.48;48.52;98722.28;6961798;28;20653;-76
2023/12/26 07:51:00;;;;;;;3.93;2.10;;;;;;;13.31;48.96;98737.47;6978029;28;20210;-76
2023/12/26 07:54:22;;;;;;;2.83;2.33;;;;;;;13.33;48.88;98750.78;6963669;28;20227;-75
2023/12/26 07:57:44;;;;;;;4.13;2.37;;;;;;;13.39;48.74;98739.06;6972022;28;20724;-75
2023/12/26 08:01:07;;;;;;;4.23;2.40;;;;;;;13.91;47.60;98747.41;6955765;28;20202;-74
2023/12/26 08:04:28;;;;;;;4.23;2.70;;;;;;;13.66;47.74;98757.50;6958220;28;20683;-75
2023/12/26 08:07:50;;;;;;;4.43;2.60;;;;;;;13.79;47.20;98765.47;6962750;28;20204;-75
2023/12/26 08:11:11;;;;;;;5.90;2.50;;;;;;;13.85;47.43;98758.31;6969837;28;20237;-75
2023/12/26 08:14:33;;;;;;;5.03;2.70;;;;;;;13.93;47.21;98760.72;6969984;28;20302;-75
2023/12/26 08:17:56;;;;;;;4.37;2.40;;;;;;;13.85;47.50;98752.88;6958360;28;20226;-75
2023/12/26 08:21:17;;;;;;;4.60;2.70;;;;;;;14.01;46.96;98763.97;6941772;28;20610;-77
2023/12/26 08:24:39;;;;;;;4.83;2.70;;;;;;;13.63;47.89;98762.53;6943003;28;20222;-75
2023/12/26 08:28:01;;;;;;;4.77;2.60;;;;;;;13.69;47.71;98759.75;6954972;28;20248;-76
2023/12/26 08:31:23;;;;;;;5.13;2.57;;;;;;;13.44;48.47;98774.41;6968999;28;20210;-78
2023/12/26 08:34:46;;;;;;;4.10;2.40;;;;;;;13.61;47.92;98761.91;6970353;28;20213;-75
2023/12/26 08:38:07;;;;;;;6.57;2.70;;;;;;;13.95;47.42;98783.00;6967903;28;20267;-75
2023/12/26 08:41:29;;;;;;;4.07;2.50;;;;;;;13.79;47.45;98773.59;6970461;28;20246;-75
2023/12/26 08:44:50;;;;;;;2.73;1.90;;;;;;;13.67;47.59;98785.41;6967931;28;20242;-75
2023/12/26 08:48:12;;;;;;;5.67;2.70;;;;;;;14.12;46.83;98795.72;6967578;28;20233;-76
2023/12/26 08:51:39;;;;;;;5.83;2.97;;;;;;;14.61;46.08;98791.94;6970250;28;20241;-77
2023/12/26 08:55:01;;;;;;;6.57;2.80;;;;;;;14.60;46.35;98802.00;6967888;28;20218;-78
2023/12/26 08:58:27;;;;;;;4.80;2.63;;;;;;;14.39;46.75;98791.63;6960984;28;20233;-75
2023/12/26 09:01:51;;;;;;;6.23;2.80;;;;;;;14.15;46.82;98811.53;6969305;28;20230;-77
2023/12/26 09:05:13;;;;;;;5.47;3.13;;;;;;;13.78;48.26;98818.03;6966633;28;20203;-77
2023/12/26 09:08:36;;;;;;;4.43;2.97;;;;;;;13.60;48.57;98798.19;6960523;28;20214;-74
2023/12/26 09:11:59;;;;;;;6.07;2.60;;;;;;;13.98;47.85;98812.38;6966571;28;20226;-74
2023/12/26 09:15:20;;;;;;;4.70;2.57;;;;;;;14.12;47.10;98819.28;6969244;28;20399;-74
2023/12/26 09:18:42;;;;;;;2.87;2.57;;;;;;;14.23;47.13;98802.28;6969203;28;20226;-74
2023/12/26 09:22:04;;;;;;;3.07;2.57;;;;;;;14.77;46.48;98840.16;6957101;28;20227;-74
2023/12/26 09:25:27;;;;;;;3.27;2.47;;;;;;;14.93;45.78;98839.50;6962412;28;20556;-75
2023/12/26 09:28:49;;;;;;;5.07;3.57;;;;;;;14.65;45.85;98858.28;6957939;28;20564;-76
2023/12/26 09:32:10;;;;;;;6.63;2.80;;;;;;;14.93;45.53;98856.59;6966319;28;20283;-74
2023/12/26 09:35:32;;;;;;;5.63;2.70;;;;;;;14.50;47.05;98853.25;6969043;28;20210;-74
2023/12/26 09:38:54;;;;;;;5.17;2.80;;;;;;;14.97;45.53;98851.53;6968624;28;20278;-74
2023/12/26 09:42:19;;;;;;;4.23;2.50;;;;;;;14.77;45.48;98867.28;6967734;28;20225;-74
2023/12/26 09:45:41;;;;;;;4.30;2.40;;;;;;;14.47;46.57;98870.00;6968758;28;20207;-74
2023/12/26 09:49:03;;;;;;;4.97;2.27;;;;;;;14.61;46.26;98871.47;6968038;28;20203;-74
2023/12/26 09:52:25;;;;;;;4.90;2.93;;;;;;;15.06;45.49;98869.16;6968496;28;20238;-74
2023/12/26 09:55:47;;;;;;;6.13;2.53;;;;;;;15.21;44.84;98867.66;6967253;28;20215;-75
2023/12/26 09:59:11;;;;;;;3.07;2.57;;;;;;;14.29;46.56;98867.28;6939708;28;20225;-74
2023/12/26 10:02:32;;;;;;;3.27;2.07;;;;;;;14.70;46.35;98883.66;6941440;28;20274;-74
2023/12/26 10:05:57;;;;;;;3.73;2.20;;;;;;;14.91;45.80;98887.75;6960115;28;20214;-75
2023/12/26 10:09:19;;;;;;;5.27;2.80;;;;;;;14.75;45.60;98896.56;6966423;28;20202;-74
2023/12/26 10:12:41;;;;;;;5.30;2.90;;;;;;;14.88;45.82;98909.94;6968248;28;20287;-74
2023/12/26 10:16:04;;;;;;;9.37;4.13;;;;;;;14.71;46.00;98907.06;6965661;28;20202;-74
2023/12/26 10:19:26;;;;;;;6.23;4.43;;;;;;;14.43;46.84;98914.06;6940625;28;20269;-74
2023/12/26 10:22:47;;;;;;;3.43;2.37;;;;;;;14.40;46.92;98893.66;6947453;28;20227;-75
2023/12/26 10:26:09;;;;;;;5.23;2.97;;;;;;;14.66;46.15;98901.47;6968110;28;20212;-74
2023/12/26 10:29:31;;;;;;;3.57;2.40;;;;;;;14.93;45.70;98891.91;6966854;28;20217;-75
2023/12/26 10:33:00;;;;;;;3.53;2.30;;;;;;;14.98;46.11;98883.88;6962633;28;20566;-74
2023/12/26 10:36:21;;;;;;;5.00;2.50;;;;;;;15.05;45.86;98881.09;6966066;28;20236;-74
2023/12/26 10:39:43;;;;;;;5.53;2.50;;;;;;;15.32;44.84;98863.31;6967282;28;20257;-74
2023/12/26 10:43:05;;;;;;;3.97;2.33;;;;;;;15.09;45.87;98883.09;6968088;28;20239;-75
2023/12/26 10:46:27;;;;;;;4.27;2.80;;;;;;;14.97;46.09;98884.09;6967772;28;20212;-76
2023/12/26 10:49:55;;;;;;;3.57;2.57;;;;;;;14.99;46.16;98873.88;6967705;28;20788;-75
2023/12/26 10:53:19;;;;;;;2.90;2.23;;;;;;;15.25;44.95;98882.44;6967089;28;20237;-74
2023/12/26 10:56:42;;;;;;;5.03;2.23;;;;;;;14.88;46.42;98877.38;6967608;28;20275;-74
2023/12/26 11:00:50;;;;;;;2.50;2.13;;;;;;;14.97;46.45;98889.53;6967556;28;20235;-74
2023/12/26 13:51:27;;;;;;;1.97;1.60;;;;;;;15.35;47.70;98961.53;6959308;28;20211;-76
2023/12/26 13:54:48;;;;;;;1.50;1.40;;;;;;;15.51;47.65;98952.69;6954356;28;20242;-76
2023/12/26 13:58:10;;;;;;;1.60;1.50;;;;;;;15.67;46.66;98960.19;6968430;28;20270;-75
2023/12/26 14:01:32;;;;;;;2.00;1.70;;;;;;;15.37;47.47;98956.69;6968134;28;20660;-76
2023/12/26 14:04:53;;;;;;;2.07;1.50;;;;;;;15.51;47.51;98965.47;6968235;28;20209;-76
2023/12/26 14:08:17;;;;;;;2.07;1.60;;;;;;;15.42;47.57;98942.41;6950453;28;20637;-76
2023/12/26 14:11:38;;;;;;;1.97;1.80;;;;;;;15.41;47.57;98911.69;6957929;28;20238;-76
2023/12/26 14:15:00;;;;;;;1.60;1.50;;;;;;;15.41;47.59;98955.16;6959765;28;20245;-75
2023/12/26 14:18:21;;;;;;;1.70;1.60;;;;;;;15.20;48.36;98969.22;6967225;28;20353;-75
2023/12/26 14:21:43;;;;;;;2.00;1.90;;;;;;;15.41;47.85;98957.88;6967863;28;20253;-75
2023/12/26 14:25:06;;;;;;;1.60;1.50;;;;;;;15.02;48.88;98982.00;6968649;28;20682;-75
2023/12/26 14:28:27;;;;;;;1.57;1.47;;;;;;;15.20;48.39;98985.53;6968166;28;20259;-75
2023/12/26 14:31:49;;;;;;;1.70;1.60;;;;;;;15.53;47.63;98972.34;6968005;28;20243;-75
2023/12/26 14:35:10;;;;;;;1.70;1.60;;;;;;;15.24;48.64;98989.44;6965184;28;20211;-76
2023/12/26 14:38:32;;;;;;;2.50;1.70;;;;;;;15.23;48.90;98992.38;6950817;28;20235;-75
2023/12/26 14:41:55;;;;;;;2.37;2.07;;;;;;;15.25;48.49;98987.53;6940298;28;20322;-74
2023/12/26 14:45:16;;;;;;;1.90;1.80;;;;;;;15.29;48.48;98978.69;6940663;28;20345;-75
2023/12/26 14:48:38;;;;;;;4.97;2.00;;;;;;;15.57;47.96;98980.84;6940749;28;20211;-75
2023/12/26 14:51:59;;;;;;;1.60;1.50;;;;;;;15.33;48.24;98981.84;6953916;28;20841;-75
2023/12/26 14:55:20;;;;;;;1.60;1.50;;;;;;;15.20;48.61;98990.97;6962124;28;20353;-75
2023/12/26 14:58:43;;;;;;;2.90;1.90;;;;;;;15.13;48.88;99003.81;6961749;28;20316;-75
2023/12/26 15:02:07;;;;;;;2.33;1.50;;;;;;;15.03;49.17;99016.25;6973334;28;20227;-76
2023/12/26 15:05:33;;;;;;;2.50;1.90;;;;;;;15.25;48.51;99012.00;6972570;28;20208;-75
2023/12/26 15:08:55;;;;;;;2.03;1.83;;;;;;;15.40;48.22;98996.16;6970821;28;20198;-75
2023/12/26 15:12:16;;;;;;;1.77;1.67;;;;;;;15.37;48.31;99019.16;6971969;28;20246;-76
2023/12/26 15:15:39;;;;;;;1.47;1.30;;;;;;;15.12;48.99;99025.75;6972624;28;20204;-75
2023/12/26 15:19:02;;;;;;;2.17;1.80;;;;;;;15.37;48.26;99029.19;6973338;28;20568;-75
2023/12/26 15:22:23;;;;;;;2.27;1.80;;;;;;;15.59;47.83;99028.47;6957353;28;20227;-75
2023/12/26 15:25:45;;;;;;;2.17;1.90;;;;;;;15.04;49.00;99028.78;6945896;28;20220;-75
2023/12/26 15:29:07;;;;;;;2.40;2.20;;;;;;;15.22;48.80;99034.19;6966661;28;20207;-75
2023/12/26 15:32:30;;;;;;;1.87;1.77;;;;;;;15.10;48.94;99034.13;6971878;28;20222;-75
2023/12/26 15:35:52;;;;;;;2.13;1.93;;;;;;;14.55;49.86;99026.22;6961635;28;20214;-76
2023/12/26 15:39:14;;;;;;;1.90;1.80;;;;;;;15.08;48.83;99029.97;6956453;28;20698;-75
2023/12/26 15:42:35;;;;;;;2.10;1.90;;;;;;;15.19;48.80;99040.91;6972547;28;20223;-75
2023/12/26 15:45:57;;;;;;;2.50;2.00;;;;;;;14.80;49.47;99060.38;6971854;28;20221;-75
2023/12/26 15:49:21;;;;;;;2.13;1.93;;;;;;;14.20;51.10;99074.75;6970584;28;20618;-75
2023/12/26 15:52:42;;;;;;;3.30;2.13;;;;;;;14.91;49.74;99075.06;6971520;28;20230;-77
2023/12/26 15:56:05;;;;;;;1.90;1.80;;;;;;;15.18;48.73;99080.00;6972043;28;20218;-75
2023/12/26 15:59:26;;;;;;;1.87;1.77;;;;;;;14.91;49.55;99073.22;6964472;28;20337;-75
2023/12/26 16:02:48;;;;;;;2.47;1.90;;;;;;;14.69;50.00;99076.59;6954985;28;20222;-75
2023/12/26 16:06:16;;;;;;;2.47;1.90;;;;;;;14.62;50.10;99090.22;6970524;28;20211;-75
2023/12/26 16:09:38;;;;;;;2.30;2.10;;;;;;;14.52;50.68;99095.31;6956849;28;20198;-77
2023/12/26 16:13:00;;;;;;;2.33;2.13;;;;;;;14.54;50.19;99093.22;6958386;28;20223;-76
2023/12/26 16:16:21;;;;;;;2.10;2.00;;;;;;;14.29;51.04;99094.28;6971803;28;20218;-76
2023/12/26 16:19:43;;;;;;;2.23;2.03;;;;;;;14.85;50.18;99094.97;6971423;28;20226;-75
2023/12/26 16:23:08;;;;;;;2.13;1.97;;;;;;;14.90;49.52;99100.56;6967155;28;20237;-76
2023/12/26 16:26:30;;;;;;;3.90;2.13;;;;;;;14.53;50.65;99105.16;6970888;28;20721;-78
2023/12/26 16:29:52;;;;;;;3.83;2.20;;;;;;;14.78;49.82;99105.94;6942933;28;20214;-79
2023/12/26 16:33:13;;;;;;;4.67;2.77;;;;;;;14.63;50.37;99096.50;6942675;28;20231;-78
2023/12/26 16:36:35;;;;;;;3.83;2.93;;;;;;;14.56;50.58;99114.69;6944306;28;20207;-76
2023/12/26 16:39:58;;;;;;;4.10;2.60;;;;;;;14.97;49.70;99123.03;6949188;28;20229;-77
2023/12/26 16:43:20;;;;;;;5.07;3.27;;;;;;;14.84;50.30;99132.19;6969987;28;20230;-78
2023/12/26 16:46:41;;;;;;;4.10;3.27;;;;;;;14.86;50.22;99127.34;6970533;28;20647;-77
2023/12/26 16:50:04;;;;;;;18.23;16.13;;;;;;;15.10;50.18;99121.03;6969425;28;20199;-75
2023/12/26 16:53:25;;;;;;;5.17;4.47;;;;;;;15.01;50.06;99137.84;6969201;28;20223;-76
2023/12/26 16:56:48;;;;;;;4.73;3.10;;;;;;;15.07;50.29;99145.94;6944962;28;20218;-79
2023/12/26 17:00:11;;;;;;;4.03;2.40;;;;;;;14.64;50.56;99136.94;6970132;28;20222;-78
2023/12/26 17:03:33;;;;;;;5.30;4.57;;;;;;;15.09;50.03;99137.53;6968338;28;20429;-76
2023/12/26 17:06:54;;;;;;;11.10;6.63;;;;;;;15.35;49.49;99132.69;6970746;28;20206;-76
2023/12/26 17:10:16;;;;;;;8.37;4.90;;;;;;;15.30;49.74;99123.50;6963349;28;20568;-77
2023/12/26 17:13:39;;;;;;;6.60;3.63;;;;;;;15.50;49.09;99122.25;6969807;28;20230;-75
2023/12/26 17:17:00;;;;;;;5.17;4.10;;;;;;;15.12;50.32;99129.78;6970019;28;20231;-75
2023/12/26 17:20:22;;;;;;;4.37;3.07;;;;;;;15.39;49.44;99128.44;6969665;28;20229;-76
2023/12/26 17:23:44;;;;;;;5.27;3.00;;;;;;;14.99;50.47;99123.66;6969835;28;20226;-79
2023/12/26 17:30:43;;;;;;;2.80;2.40;;;;;;;14.99;50.25;99142.69;6949584;28;20298;-75
2023/12/26 17:34:06;;;;;;;3.03;2.60;;;;;;;15.16;49.39;99135.59;6969019;28;20584;-76
2023/12/26 17:37:27;;;;;;;2.10;1.90;;;;;;;14.87;50.41;99149.91;6972714;28;20211;-77
2023/12/26 17:40:49;;;;;;;2.70;2.27;;;;;;;15.32;49.58;99152.16;6967251;28;20229;-76
2023/12/26 17:44:10;;;;;;;2.83;2.03;;;;;;;15.27;49.63;99151.16;6967889;28;20340;-77
2023/12/26 17:47:35;;;;;;;2.40;2.20;;;;;;;15.17;49.61;99146.22;6962318;28;20204;-77
2023/12/26 17:50:56;;;;;;;2.60;2.10;;;;;;;14.89;50.27;99164.09;6947447;28;20755;-77
2023/12/26 17:54:18;;;;;;;1.97;1.87;;;;;;;15.17;49.78;99169.84;6968118;28;20226;-77
2023/12/26 17:57:40;;;;;;;3.57;2.60;;;;;;;14.84;50.15;99178.34;6965057;28;20207;-77
2023/12/26 18:01:01;;;;;;;4.43;3.60;;;;;;;15.05;50.31;99183.31;6968275;28;20238;-76
2023/12/26 18:04:24;;;;;;;1.80;1.70;;;;;;;14.98;50.05;99185.28;6968269;28;20573;-75
2023/12/26 18:07:47;;;;;;;2.20;1.80;;;;;;;14.80;50.28;99174.41;6968144;28;20214;-75
2023/12/26 18:11:08;;;;;;;3.27;1.97;;;;;;;14.71;50.86;99191.19;6956072;28;20206;-75
2023/12/26 18:14:30;;;;;;;2.40;2.07;;;;;;;14.87;50.36;99190.63;6968984;28;20571;-75
2023/12/26 18:17:53;;;;;;;3.43;2.33;;;;;;;14.84;50.35;99197.34;6956754;28;20218;-76
2023/12/26 18:21:16;;;;;;;3.53;2.60;;;;;;;15.07;49.66;99202.13;6966120;28;20230;-75
2023/12/26 18:24:38;;;;;;;9.40;6.53;;;;;;;14.63;50.63;99208.56;6967940;28;20253;-75
2023/12/26 18:28:02;;;;;;;17.20;13.10;;;;;;;14.67;50.83;99215.22;6967627;28;20207;-75
2023/12/26 18:31:24;;;;;;;4.83;2.83;;;;;;;14.60;51.04;99209.03;6967825;28;20202;-75
2023/12/26 18:34:46;;;;;;;2.87;2.60;;;;;;;14.60;50.95;99222.59;6947251;28;20211;-75
2023/12/26 18:38:09;;;;;;;2.97;2.70;;;;;;;14.38;51.47;99221.28;6941558;28;20216;-75
2023/12/26 18:41:31;;;;;;;4.00;2.60;;;;;;;14.83;50.26;99224.69;6963498;28;20230;-76
2023/12/26 18:44:52;;;;;;;5.23;2.90;;;;;;;14.76;49.95;99215.78;6967279;28;20217;-76